<?xml version='1.0' encoding='UTF-8'?><gpx version="1.1" creator="JPX - https://github.com/jenetics/jpx" xmlns="http://www.topografix.com/GPX/1/1"><trk><trkseg><trkpt lat="45.53241" lon="10.2385233"><ele>133.0</ele><time>2026-03-30T08:47:31.586Z</time></trkpt><trkpt lat="45.5323567" lon="10.238585"><ele>133.0</ele><time>2026-03-30T08:47:37.586Z</time></trkpt><trkpt lat="45.5322917" lon="10.2386067"><ele>133.0</ele><time>2026-03-30T08:47:42.585Z</time></trkpt><trkpt lat="45.5322533" lon="10.238525"><ele>133.0</ele><time>2026-03-30T08:48:04.585Z</time></trkpt><trkpt lat="45.5321583" lon="10.2385217"><ele>133.0</ele><time>2026-03-30T08:48:27.586Z</time></trkpt><trkpt lat="45.53212" lon="10.238595"><ele>133.0</ele><time>2026-03-30T08:48:32.586Z</time></trkpt><trkpt lat="45.5320883" lon="10.2386967"><ele>133.0</ele><time>2026-03-30T08:48:44.586Z</time></trkpt><trkpt lat="45.532" lon="10.2386633"><ele>133.0</ele><time>2026-03-30T08:48:48.585Z</time></trkpt><trkpt lat="45.5319083" lon="10.2386017"><ele>133.0</ele><time>2026-03-30T08:48:50.585Z</time></trkpt><trkpt lat="45.5318233" lon="10.2385433"><ele>133.0</ele><time>2026-03-30T08:48:52.586Z</time></trkpt><trkpt lat="45.5317567" lon="10.23846"><ele>133.0</ele><time>2026-03-30T08:48:54.585Z</time></trkpt><trkpt lat="45.531675" lon="10.2383683"><ele>133.0</ele><time>2026-03-30T08:48:56.586Z</time></trkpt><trkpt lat="45.53158" lon="10.23825"><ele>133.0</ele><time>2026-03-30T08:48:58.585Z</time></trkpt><trkpt lat="45.531505" lon="10.238225"><ele>133.0</ele><time>2026-03-30T08:48:59.586Z</time></trkpt><trkpt lat="45.5314417" lon="10.2381933"><ele>133.0</ele><time>2026-03-30T08:49:00.586Z</time></trkpt><trkpt lat="45.5313733" lon="10.23815"><ele>133.0</ele><time>2026-03-30T08:49:01.586Z</time></trkpt><trkpt lat="45.53131" lon="10.2381067"><ele>133.0</ele><time>2026-03-30T08:49:02.586Z</time></trkpt><trkpt lat="45.5312033" lon="10.2380783"><ele>133.0</ele><time>2026-03-30T08:49:04.586Z</time></trkpt><trkpt lat="45.531125" lon="10.23805"><ele>132.8</ele><time>2026-03-30T08:49:07.586Z</time></trkpt><trkpt lat="45.5310483" lon="10.2379067"><ele>132.60000000000002</ele><time>2026-03-30T08:49:17.585Z</time></trkpt><trkpt lat="45.5310633" lon="10.2377833"><ele>132.39999999999998</ele><time>2026-03-30T08:49:19.585Z</time></trkpt><trkpt lat="45.531085" lon="10.23767"><ele>132.2</ele><time>2026-03-30T08:49:21.586Z</time></trkpt><trkpt lat="45.5311033" lon="10.2375167"><ele>132.0</ele><time>2026-03-30T08:49:29.585Z</time></trkpt><trkpt lat="45.5311233" lon="10.2374083"><ele>131.85714285714286</ele><time>2026-03-30T08:49:32.586Z</time></trkpt><trkpt lat="45.53113" lon="10.2372983"><ele>131.71428571428572</ele><time>2026-03-30T08:49:39.585Z</time></trkpt><trkpt lat="45.5311433" lon="10.2371883"><ele>131.57142857142858</ele><time>2026-03-30T08:49:41.586Z</time></trkpt><trkpt lat="45.53115" lon="10.2370983"><ele>131.42857142857144</ele><time>2026-03-30T08:49:42.586Z</time></trkpt><trkpt lat="45.5311517" lon="10.2370017"><ele>131.2857142857143</ele><time>2026-03-30T08:49:43.586Z</time></trkpt><trkpt lat="45.53115" lon="10.2369017"><ele>131.14285714285714</ele><time>2026-03-30T08:49:44.585Z</time></trkpt><trkpt lat="45.53115" lon="10.2367933"><ele>131.0</ele><time>2026-03-30T08:49:45.586Z</time></trkpt><trkpt lat="45.53115" lon="10.2366817"><ele>131.0</ele><time>2026-03-30T08:49:46.586Z</time></trkpt><trkpt lat="45.5311417" lon="10.2365533"><ele>131.0</ele><time>2026-03-30T08:49:47.586Z</time></trkpt><trkpt lat="45.5311333" lon="10.2364233"><ele>131.0</ele><time>2026-03-30T08:49:48.586Z</time></trkpt><trkpt lat="45.5311217" lon="10.23628"><ele>131.0</ele><time>2026-03-30T08:49:49.586Z</time></trkpt><trkpt lat="45.531115" lon="10.2361267"><ele>131.0</ele><time>2026-03-30T08:49:50.585Z</time></trkpt><trkpt lat="45.5311083" lon="10.2359733"><ele>131.0</ele><time>2026-03-30T08:49:51.585Z</time></trkpt><trkpt lat="45.5310883" lon="10.2358133"><ele>131.0</ele><time>2026-03-30T08:49:52.585Z</time></trkpt><trkpt lat="45.5310783" lon="10.2356533"><ele>131.0</ele><time>2026-03-30T08:49:53.586Z</time></trkpt><trkpt lat="45.5310567" lon="10.2355017"><ele>131.0</ele><time>2026-03-30T08:49:54.586Z</time></trkpt><trkpt lat="45.5310433" lon="10.2353533"><ele>131.0</ele><time>2026-03-30T08:49:55.586Z</time></trkpt><trkpt lat="45.5310317" lon="10.2352083"><ele>131.2</ele><time>2026-03-30T08:49:56.586Z</time></trkpt><trkpt lat="45.5310233" lon="10.235065"><ele>131.39999999999998</ele><time>2026-03-30T08:49:57.586Z</time></trkpt><trkpt lat="45.5310117" lon="10.2349267"><ele>131.6</ele><time>2026-03-30T08:49:58.586Z</time></trkpt><trkpt lat="45.5310067" lon="10.2347933"><ele>131.79999999999998</ele><time>2026-03-30T08:49:59.586Z</time></trkpt><trkpt lat="45.5310067" lon="10.2346583"><ele>132.0</ele><time>2026-03-30T08:50:00.585Z</time></trkpt><trkpt lat="45.531005" lon="10.2345467"><ele>132.4</ele><time>2026-03-30T08:50:01.585Z</time></trkpt><trkpt lat="45.5310033" lon="10.234445"><ele>132.79999999999998</ele><time>2026-03-30T08:50:02.585Z</time></trkpt><trkpt lat="45.5310067" lon="10.234345"><ele>133.2</ele><time>2026-03-30T08:50:03.586Z</time></trkpt><trkpt lat="45.5310133" lon="10.2341883"><ele>133.6</ele><time>2026-03-30T08:50:05.585Z</time></trkpt><trkpt lat="45.53097" lon="10.2339717"><ele>134.0</ele><time>2026-03-30T08:50:55.586Z</time></trkpt><trkpt lat="45.5309683" lon="10.2338067"><ele>134.0</ele><time>2026-03-30T08:50:57.586Z</time></trkpt><trkpt lat="45.5309667" lon="10.2336817"><ele>134.0</ele><time>2026-03-30T08:50:58.586Z</time></trkpt><trkpt lat="45.5309717" lon="10.233535"><ele>134.0</ele><time>2026-03-30T08:50:59.585Z</time></trkpt><trkpt lat="45.53097" lon="10.2333667"><ele>134.0</ele><time>2026-03-30T08:51:00.585Z</time></trkpt><trkpt lat="45.530965" lon="10.233195"><ele>134.0</ele><time>2026-03-30T08:51:01.586Z</time></trkpt><trkpt lat="45.5309483" lon="10.23302"><ele>134.0</ele><time>2026-03-30T08:51:02.586Z</time></trkpt><trkpt lat="45.5309467" lon="10.2328367"><ele>134.0</ele><time>2026-03-30T08:51:03.586Z</time></trkpt><trkpt lat="45.53094" lon="10.2326633"><ele>134.0</ele><time>2026-03-30T08:51:04.586Z</time></trkpt><trkpt lat="45.53093" lon="10.2324917"><ele>134.0</ele><time>2026-03-30T08:51:05.586Z</time></trkpt><trkpt lat="45.53093" lon="10.2323483"><ele>134.16666666666666</ele><time>2026-03-30T08:51:06.586Z</time></trkpt><trkpt lat="45.5309217" lon="10.2322233"><ele>134.33333333333331</ele><time>2026-03-30T08:51:07.586Z</time></trkpt><trkpt lat="45.5309167" lon="10.2321133"><ele>134.5</ele><time>2026-03-30T08:51:08.586Z</time></trkpt><trkpt lat="45.5309133" lon="10.2319967"><ele>134.66666666666666</ele><time>2026-03-30T08:51:09.586Z</time></trkpt><trkpt lat="45.5309" lon="10.231875"><ele>134.83333333333334</ele><time>2026-03-30T08:51:10.586Z</time></trkpt><trkpt lat="45.5308917" lon="10.2317483"><ele>135.0</ele><time>2026-03-30T08:51:11.585Z</time></trkpt><trkpt lat="45.53089" lon="10.23162"><ele>135.0</ele><time>2026-03-30T08:51:12.586Z</time></trkpt><trkpt lat="45.530885" lon="10.231475"><ele>135.0</ele><time>2026-03-30T08:51:13.586Z</time></trkpt><trkpt lat="45.5308817" lon="10.23132"><ele>135.0</ele><time>2026-03-30T08:51:14.586Z</time></trkpt><trkpt lat="45.5308767" lon="10.2311683"><ele>135.0</ele><time>2026-03-30T08:51:15.586Z</time></trkpt><trkpt lat="45.5308717" lon="10.2310117"><ele>135.0</ele><time>2026-03-30T08:51:16.585Z</time></trkpt><trkpt lat="45.5308667" lon="10.2308517"><ele>135.6</ele><time>2026-03-30T08:51:17.586Z</time></trkpt><trkpt lat="45.530865" lon="10.2306967"><ele>136.2</ele><time>2026-03-30T08:51:18.586Z</time></trkpt><trkpt lat="45.5308633" lon="10.2305333"><ele>136.8</ele><time>2026-03-30T08:51:19.586Z</time></trkpt><trkpt lat="45.5308583" lon="10.230375"><ele>137.4</ele><time>2026-03-30T08:51:20.586Z</time></trkpt><trkpt lat="45.53085" lon="10.23022"><ele>138.0</ele><time>2026-03-30T08:51:21.586Z</time></trkpt><trkpt lat="45.530845" lon="10.230065"><ele>138.4</ele><time>2026-03-30T08:51:22.585Z</time></trkpt><trkpt lat="45.5308467" lon="10.22992"><ele>138.8</ele><time>2026-03-30T08:51:23.586Z</time></trkpt><trkpt lat="45.5308417" lon="10.2297717"><ele>139.2</ele><time>2026-03-30T08:51:24.586Z</time></trkpt><trkpt lat="45.530825" lon="10.2296067"><ele>139.6</ele><time>2026-03-30T08:51:25.586Z</time></trkpt><trkpt lat="45.5308233" lon="10.2294583"><ele>140.0</ele><time>2026-03-30T08:51:26.586Z</time></trkpt><trkpt lat="45.530825" lon="10.22933"><ele>140.0</ele><time>2026-03-30T08:51:27.586Z</time></trkpt><trkpt lat="45.530825" lon="10.22918"><ele>140.0</ele><time>2026-03-30T08:51:28.585Z</time></trkpt><trkpt lat="45.53081" lon="10.2290333"><ele>140.0</ele><time>2026-03-30T08:51:29.585Z</time></trkpt><trkpt lat="45.5307983" lon="10.228885"><ele>140.0</ele><time>2026-03-30T08:51:30.586Z</time></trkpt><trkpt lat="45.5307817" lon="10.2287533"><ele>140.0</ele><time>2026-03-30T08:51:31.586Z</time></trkpt><trkpt lat="45.5307717" lon="10.2286383"><ele>139.83333333333331</ele><time>2026-03-30T08:51:32.586Z</time></trkpt><trkpt lat="45.5307583" lon="10.22853"><ele>139.66666666666666</ele><time>2026-03-30T08:51:33.586Z</time></trkpt><trkpt lat="45.5307383" lon="10.2284217"><ele>139.5</ele><time>2026-03-30T08:51:34.586Z</time></trkpt><trkpt lat="45.5307283" lon="10.2283083"><ele>139.33333333333334</ele><time>2026-03-30T08:51:35.585Z</time></trkpt><trkpt lat="45.5307183" lon="10.228185"><ele>139.16666666666669</ele><time>2026-03-30T08:51:36.586Z</time></trkpt><trkpt lat="45.5307117" lon="10.2280517"><ele>139.0</ele><time>2026-03-30T08:51:37.586Z</time></trkpt><trkpt lat="45.5307017" lon="10.2279117"><ele>139.0</ele><time>2026-03-30T08:51:38.586Z</time></trkpt><trkpt lat="45.5306883" lon="10.2277733"><ele>139.0</ele><time>2026-03-30T08:51:39.586Z</time></trkpt><trkpt lat="45.530675" lon="10.2276367"><ele>139.0</ele><time>2026-03-30T08:51:40.586Z</time></trkpt><trkpt lat="45.530675" lon="10.2275033"><ele>139.0</ele><time>2026-03-30T08:51:41.586Z</time></trkpt><trkpt lat="45.5306683" lon="10.2273517"><ele>139.0</ele><time>2026-03-30T08:51:42.586Z</time></trkpt><trkpt lat="45.5306633" lon="10.2272167"><ele>139.0</ele><time>2026-03-30T08:51:43.586Z</time></trkpt><trkpt lat="45.53065" lon="10.22708"><ele>139.0</ele><time>2026-03-30T08:51:44.586Z</time></trkpt><trkpt lat="45.5306517" lon="10.226945"><ele>139.0</ele><time>2026-03-30T08:51:45.585Z</time></trkpt><trkpt lat="45.5306617" lon="10.226815"><ele>139.0</ele><time>2026-03-30T08:51:46.586Z</time></trkpt><trkpt lat="45.5306783" lon="10.2266767"><ele>139.0</ele><time>2026-03-30T08:51:47.586Z</time></trkpt><trkpt lat="45.5306933" lon="10.2265483"><ele>139.2</ele><time>2026-03-30T08:51:48.586Z</time></trkpt><trkpt lat="45.53072" lon="10.2264483"><ele>139.4</ele><time>2026-03-30T08:51:49.586Z</time></trkpt><trkpt lat="45.53075" lon="10.2263617"><ele>139.6</ele><time>2026-03-30T08:51:50.586Z</time></trkpt><trkpt lat="45.5308167" lon="10.2262233"><ele>139.8</ele><time>2026-03-30T08:51:52.586Z</time></trkpt><trkpt lat="45.53088" lon="10.226055"><ele>140.0</ele><time>2026-03-30T08:51:54.586Z</time></trkpt><trkpt lat="45.5309117" lon="10.2259617"><ele>140.0</ele><time>2026-03-30T08:51:55.585Z</time></trkpt><trkpt lat="45.5309417" lon="10.22586"><ele>140.0</ele><time>2026-03-30T08:51:56.586Z</time></trkpt><trkpt lat="45.5309633" lon="10.2257517"><ele>140.0</ele><time>2026-03-30T08:51:57.585Z</time></trkpt><trkpt lat="45.5309883" lon="10.2256517"><ele>140.0</ele><time>2026-03-30T08:51:58.586Z</time></trkpt><trkpt lat="45.5310083" lon="10.2255533"><ele>140.0</ele><time>2026-03-30T08:51:59.586Z</time></trkpt><trkpt lat="45.53103" lon="10.2254633"><ele>140.0</ele><time>2026-03-30T08:52:00.586Z</time></trkpt><trkpt lat="45.5310567" lon="10.2253683"><ele>140.0</ele><time>2026-03-30T08:52:01.586Z</time></trkpt><trkpt lat="45.531085" lon="10.2252633"><ele>140.2</ele><time>2026-03-30T08:52:02.586Z</time></trkpt><trkpt lat="45.5311317" lon="10.2251867"><ele>140.4</ele><time>2026-03-30T08:52:03.586Z</time></trkpt><trkpt lat="45.531165" lon="10.225045"><ele>140.6</ele><time>2026-03-30T08:52:05.585Z</time></trkpt><trkpt lat="45.531175" lon="10.224935"><ele>140.8</ele><time>2026-03-30T08:52:07.585Z</time></trkpt><trkpt lat="45.5312567" lon="10.2247683"><ele>141.0</ele><time>2026-03-30T08:53:03.586Z</time></trkpt><trkpt lat="45.53128" lon="10.2246333"><ele>141.0</ele><time>2026-03-30T08:53:05.586Z</time></trkpt><trkpt lat="45.5313017" lon="10.2245283"><ele>141.0</ele><time>2026-03-30T08:53:06.585Z</time></trkpt><trkpt lat="45.531315" lon="10.2244117"><ele>141.0</ele><time>2026-03-30T08:53:07.586Z</time></trkpt><trkpt lat="45.5313283" lon="10.2242983"><ele>141.0</ele><time>2026-03-30T08:53:08.586Z</time></trkpt><trkpt lat="45.5313433" lon="10.224185"><ele>141.0</ele><time>2026-03-30T08:53:09.586Z</time></trkpt><trkpt lat="45.5313617" lon="10.2240667"><ele>141.0</ele><time>2026-03-30T08:53:10.586Z</time></trkpt><trkpt lat="45.5313767" lon="10.2239517"><ele>141.16666666666666</ele><time>2026-03-30T08:53:11.586Z</time></trkpt><trkpt lat="45.5313967" lon="10.223845"><ele>141.33333333333334</ele><time>2026-03-30T08:53:12.586Z</time></trkpt><trkpt lat="45.5314217" lon="10.2237333"><ele>141.5</ele><time>2026-03-30T08:53:13.586Z</time></trkpt><trkpt lat="45.5314517" lon="10.2236083"><ele>141.66666666666669</ele><time>2026-03-30T08:53:14.585Z</time></trkpt><trkpt lat="45.53148" lon="10.2234833"><ele>141.83333333333334</ele><time>2026-03-30T08:53:15.586Z</time></trkpt><trkpt lat="45.531505" lon="10.2233567"><ele>142.0</ele><time>2026-03-30T08:53:16.586Z</time></trkpt><trkpt lat="45.531535" lon="10.22325"><ele>142.0</ele><time>2026-03-30T08:53:17.585Z</time></trkpt><trkpt lat="45.531555" lon="10.2231517"><ele>142.0</ele><time>2026-03-30T08:53:18.586Z</time></trkpt><trkpt lat="45.53158" lon="10.223015"><ele>142.0</ele><time>2026-03-30T08:53:20.586Z</time></trkpt><trkpt lat="45.5315883" lon="10.2228567"><ele>142.0</ele><time>2026-03-30T08:53:42.586Z</time></trkpt><trkpt lat="45.5316283" lon="10.2226633"><ele>142.0</ele><time>2026-03-30T08:53:44.586Z</time></trkpt><trkpt lat="45.5316617" lon="10.2225267"><ele>141.5</ele><time>2026-03-30T08:53:45.585Z</time></trkpt><trkpt lat="45.5317" lon="10.2223767"><ele>141.0</ele><time>2026-03-30T08:53:46.585Z</time></trkpt><trkpt lat="45.5317533" lon="10.222215"><ele>140.5</ele><time>2026-03-30T08:53:47.585Z</time></trkpt><trkpt lat="45.5317833" lon="10.22205"><ele>140.0</ele><time>2026-03-30T08:53:48.586Z</time></trkpt><trkpt lat="45.5318167" lon="10.2218867"><ele>140.0</ele><time>2026-03-30T08:53:49.586Z</time></trkpt><trkpt lat="45.53186" lon="10.2217367"><ele>140.0</ele><time>2026-03-30T08:53:50.585Z</time></trkpt><trkpt lat="45.5318883" lon="10.2215967"><ele>140.0</ele><time>2026-03-30T08:53:51.586Z</time></trkpt><trkpt lat="45.5319317" lon="10.2214533"><ele>140.0</ele><time>2026-03-30T08:53:52.586Z</time></trkpt><trkpt lat="45.53197" lon="10.221325"><ele>140.0</ele><time>2026-03-30T08:53:53.586Z</time></trkpt><trkpt lat="45.5320017" lon="10.221195"><ele>140.0</ele><time>2026-03-30T08:53:54.586Z</time></trkpt><trkpt lat="45.532035" lon="10.2210733"><ele>140.0</ele><time>2026-03-30T08:53:55.585Z</time></trkpt><trkpt lat="45.5320667" lon="10.220965"><ele>140.0</ele><time>2026-03-30T08:53:56.585Z</time></trkpt><trkpt lat="45.5320917" lon="10.22086"><ele>140.0</ele><time>2026-03-30T08:53:57.586Z</time></trkpt><trkpt lat="45.532125" lon="10.2207733"><ele>140.0</ele><time>2026-03-30T08:53:58.586Z</time></trkpt><trkpt lat="45.5321617" lon="10.2206983"><ele>140.0</ele><time>2026-03-30T08:53:59.585Z</time></trkpt><trkpt lat="45.5322333" lon="10.22058"><ele>140.8</ele><time>2026-03-30T08:54:01.585Z</time></trkpt><trkpt lat="45.532275" lon="10.22045"><ele>141.6</ele><time>2026-03-30T08:54:03.586Z</time></trkpt><trkpt lat="45.5322667" lon="10.2203233"><ele>142.4</ele><time>2026-03-30T08:54:04.586Z</time></trkpt><trkpt lat="45.532275" lon="10.2201983"><ele>143.2</ele><time>2026-03-30T08:54:05.585Z</time></trkpt><trkpt lat="45.5322933" lon="10.220065"><ele>144.0</ele><time>2026-03-30T08:54:06.586Z</time></trkpt><trkpt lat="45.5323133" lon="10.2199217"><ele>144.0</ele><time>2026-03-30T08:54:07.586Z</time></trkpt><trkpt lat="45.5323367" lon="10.219785"><ele>144.0</ele><time>2026-03-30T08:54:08.586Z</time></trkpt><trkpt lat="45.532365" lon="10.2196533"><ele>144.0</ele><time>2026-03-30T08:54:09.586Z</time></trkpt><trkpt lat="45.5323867" lon="10.21953"><ele>144.0</ele><time>2026-03-30T08:54:10.586Z</time></trkpt><trkpt lat="45.5324183" lon="10.2194083"><ele>144.0</ele><time>2026-03-30T08:54:11.586Z</time></trkpt><trkpt lat="45.532435" lon="10.2192817"><ele>144.0</ele><time>2026-03-30T08:54:12.586Z</time></trkpt><trkpt lat="45.532455" lon="10.2191567"><ele>144.0</ele><time>2026-03-30T08:54:13.586Z</time></trkpt><trkpt lat="45.532475" lon="10.2190283"><ele>144.0</ele><time>2026-03-30T08:54:14.585Z</time></trkpt><trkpt lat="45.5324917" lon="10.2189033"><ele>144.0</ele><time>2026-03-30T08:54:15.585Z</time></trkpt><trkpt lat="45.532505" lon="10.2187833"><ele>144.0</ele><time>2026-03-30T08:54:16.586Z</time></trkpt><trkpt lat="45.532535" lon="10.2186633"><ele>144.0</ele><time>2026-03-30T08:54:17.585Z</time></trkpt><trkpt lat="45.5325633" lon="10.2185517"><ele>143.8</ele><time>2026-03-30T08:54:18.586Z</time></trkpt><trkpt lat="45.5325983" lon="10.2184433"><ele>143.60000000000002</ele><time>2026-03-30T08:54:19.586Z</time></trkpt><trkpt lat="45.53263" lon="10.2183383"><ele>143.4</ele><time>2026-03-30T08:54:20.586Z</time></trkpt><trkpt lat="45.5326517" lon="10.218235"><ele>143.20000000000002</ele><time>2026-03-30T08:54:21.585Z</time></trkpt><trkpt lat="45.5326767" lon="10.2180867"><ele>143.0</ele><time>2026-03-30T08:54:23.585Z</time></trkpt><trkpt lat="45.5327517" lon="10.2179733"><ele>143.0</ele><time>2026-03-30T08:54:56.585Z</time></trkpt><trkpt lat="45.532785" lon="10.2178267"><ele>143.0</ele><time>2026-03-30T08:54:58.586Z</time></trkpt><trkpt lat="45.532805" lon="10.2177317"><ele>143.0</ele><time>2026-03-30T08:54:59.586Z</time></trkpt><trkpt lat="45.5328233" lon="10.2176233"><ele>143.0</ele><time>2026-03-30T08:55:00.586Z</time></trkpt><trkpt lat="45.5328417" lon="10.217515"><ele>143.0</ele><time>2026-03-30T08:55:01.586Z</time></trkpt><trkpt lat="45.532855" lon="10.2174117"><ele>143.0</ele><time>2026-03-30T08:55:02.586Z</time></trkpt><trkpt lat="45.5328717" lon="10.2173117"><ele>143.0</ele><time>2026-03-30T08:55:03.586Z</time></trkpt><trkpt lat="45.5328883" lon="10.217225"><ele>143.0</ele><time>2026-03-30T08:55:04.586Z</time></trkpt><trkpt lat="45.5329167" lon="10.2170767"><ele>143.0</ele><time>2026-03-30T08:55:06.586Z</time></trkpt><trkpt lat="45.532945" lon="10.216985"><ele>143.0</ele><time>2026-03-30T08:55:08.586Z</time></trkpt><trkpt lat="45.5329717" lon="10.2168933"><ele>143.0</ele><time>2026-03-30T08:55:13.586Z</time></trkpt><trkpt lat="45.5330067" lon="10.21677"><ele>143.0</ele><time>2026-03-30T08:55:16.586Z</time></trkpt><trkpt lat="45.5330333" lon="10.2166233"><ele>143.16666666666666</ele><time>2026-03-30T08:55:18.585Z</time></trkpt><trkpt lat="45.533045" lon="10.21653"><ele>143.33333333333331</ele><time>2026-03-30T08:55:19.586Z</time></trkpt><trkpt lat="45.533065" lon="10.2164233"><ele>143.5</ele><time>2026-03-30T08:55:20.586Z</time></trkpt><trkpt lat="45.5330833" lon="10.2163083"><ele>143.66666666666666</ele><time>2026-03-30T08:55:21.585Z</time></trkpt><trkpt lat="45.533105" lon="10.2161733"><ele>143.83333333333334</ele><time>2026-03-30T08:55:22.586Z</time></trkpt><trkpt lat="45.5331283" lon="10.2160433"><ele>144.0</ele><time>2026-03-30T08:55:23.586Z</time></trkpt><trkpt lat="45.5331533" lon="10.2159117"><ele>144.0</ele><time>2026-03-30T08:55:24.585Z</time></trkpt><trkpt lat="45.533185" lon="10.2157817"><ele>144.0</ele><time>2026-03-30T08:55:25.585Z</time></trkpt><trkpt lat="45.5332133" lon="10.215665"><ele>144.0</ele><time>2026-03-30T08:55:26.585Z</time></trkpt><trkpt lat="45.5332517" lon="10.2155583"><ele>144.0</ele><time>2026-03-30T08:55:27.586Z</time></trkpt><trkpt lat="45.533285" lon="10.2154633"><ele>144.0</ele><time>2026-03-30T08:55:28.586Z</time></trkpt><trkpt lat="45.5333167" lon="10.2153733"><ele>144.0</ele><time>2026-03-30T08:55:29.586Z</time></trkpt><trkpt lat="45.5333617" lon="10.215225"><ele>143.8</ele><time>2026-03-30T08:55:31.586Z</time></trkpt><trkpt lat="45.5333967" lon="10.21508"><ele>143.60000000000002</ele><time>2026-03-30T08:55:45.586Z</time></trkpt><trkpt lat="45.53338" lon="10.2149533"><ele>143.4</ele><time>2026-03-30T09:12:43.585Z</time></trkpt><trkpt lat="45.533425" lon="10.2147867"><ele>143.20000000000002</ele><time>2026-03-30T09:12:45.585Z</time></trkpt><trkpt lat="45.533455" lon="10.2146767"><ele>143.0</ele><time>2026-03-30T09:12:46.584Z</time></trkpt><trkpt lat="45.533485" lon="10.214555"><ele>143.33333333333331</ele><time>2026-03-30T09:12:47.585Z</time></trkpt><trkpt lat="45.5335117" lon="10.2144283"><ele>143.66666666666666</ele><time>2026-03-30T09:12:48.584Z</time></trkpt><trkpt lat="45.5335417" lon="10.2143067"><ele>144.0</ele><time>2026-03-30T09:12:49.585Z</time></trkpt><trkpt lat="45.5335683" lon="10.2142"><ele>144.33333333333334</ele><time>2026-03-30T09:12:50.585Z</time></trkpt><trkpt lat="45.533595" lon="10.214095"><ele>144.66666666666669</ele><time>2026-03-30T09:12:51.584Z</time></trkpt><trkpt lat="45.5336183" lon="10.2139917"><ele>145.0</ele><time>2026-03-30T09:12:52.585Z</time></trkpt><trkpt lat="45.5336417" lon="10.21389"><ele>145.0</ele><time>2026-03-30T09:12:53.585Z</time></trkpt><trkpt lat="45.5336533" lon="10.2137967"><ele>145.0</ele><time>2026-03-30T09:12:54.585Z</time></trkpt><trkpt lat="45.53367" lon="10.2136383"><ele>145.0</ele><time>2026-03-30T09:13:28.585Z</time></trkpt><trkpt lat="45.5337" lon="10.2135467"><ele>145.0</ele><time>2026-03-30T09:13:31.585Z</time></trkpt><trkpt lat="45.533835" lon="10.2135517"><ele>145.0</ele><time>2026-03-30T09:13:33.585Z</time></trkpt><trkpt lat="45.5339" lon="10.2135767"><ele>145.0</ele><time>2026-03-30T09:13:34.585Z</time></trkpt><trkpt lat="45.5339783" lon="10.2135917"><ele>145.0</ele><time>2026-03-30T09:13:35.584Z</time></trkpt><trkpt lat="45.5340433" lon="10.2136233"><ele>145.0</ele><time>2026-03-30T09:13:36.585Z</time></trkpt><trkpt lat="45.5341117" lon="10.2136483"><ele>145.0</ele><time>2026-03-30T09:13:37.585Z</time></trkpt><trkpt lat="45.534175" lon="10.2136733"><ele>145.0</ele><time>2026-03-30T09:13:38.585Z</time></trkpt><trkpt lat="45.534225" lon="10.2137333"><ele>145.0</ele><time>2026-03-30T09:13:42.585Z</time></trkpt><trkpt lat="45.5342817" lon="10.213805"><ele>145.0</ele><time>2026-03-30T09:14:26.584Z</time></trkpt><trkpt lat="45.5343467" lon="10.2138633"><ele>145.0</ele><time>2026-03-30T09:14:28.585Z</time></trkpt><trkpt lat="45.5343983" lon="10.213975"><ele>145.0</ele><time>2026-03-30T09:14:30.584Z</time></trkpt><trkpt lat="45.5344033" lon="10.2141517"><ele>145.0</ele><time>2026-03-30T09:14:32.585Z</time></trkpt><trkpt lat="45.5343667" lon="10.2142917"><ele>145.0</ele><time>2026-03-30T09:14:33.584Z</time></trkpt><trkpt lat="45.5343183" lon="10.2144583"><ele>145.0</ele><time>2026-03-30T09:14:34.585Z</time></trkpt><trkpt lat="45.5342733" lon="10.2146183"><ele>145.0</ele><time>2026-03-30T09:14:35.585Z</time></trkpt><trkpt lat="45.5342333" lon="10.2147767"><ele>145.0</ele><time>2026-03-30T09:14:36.585Z</time></trkpt><trkpt lat="45.5342" lon="10.2149533"><ele>145.0</ele><time>2026-03-30T09:14:37.585Z</time></trkpt><trkpt lat="45.5341567" lon="10.2151183"><ele>145.0</ele><time>2026-03-30T09:14:38.585Z</time></trkpt><trkpt lat="45.534115" lon="10.2152783"><ele>144.75</ele><time>2026-03-30T09:14:39.585Z</time></trkpt><trkpt lat="45.5340783" lon="10.215445"><ele>144.5</ele><time>2026-03-30T09:14:40.585Z</time></trkpt><trkpt lat="45.5340333" lon="10.2156167"><ele>144.25</ele><time>2026-03-30T09:14:41.585Z</time></trkpt><trkpt lat="45.5339883" lon="10.2157867"><ele>144.0</ele><time>2026-03-30T09:14:42.585Z</time></trkpt><trkpt lat="45.5339467" lon="10.215955"><ele>144.0</ele><time>2026-03-30T09:14:43.585Z</time></trkpt><trkpt lat="45.5339083" lon="10.2161317"><ele>144.0</ele><time>2026-03-30T09:14:44.585Z</time></trkpt><trkpt lat="45.5338733" lon="10.216315"><ele>144.0</ele><time>2026-03-30T09:14:45.585Z</time></trkpt><trkpt lat="45.533845" lon="10.2165067"><ele>144.0</ele><time>2026-03-30T09:14:46.584Z</time></trkpt><trkpt lat="45.5338333" lon="10.2167117"><ele>144.2</ele><time>2026-03-30T09:14:47.585Z</time></trkpt><trkpt lat="45.5338017" lon="10.2168883"><ele>144.4</ele><time>2026-03-30T09:14:48.585Z</time></trkpt><trkpt lat="45.53377" lon="10.2170367"><ele>144.6</ele><time>2026-03-30T09:14:49.585Z</time></trkpt><trkpt lat="45.5337467" lon="10.2171617"><ele>144.8</ele><time>2026-03-30T09:14:50.584Z</time></trkpt><trkpt lat="45.5337217" lon="10.2172683"><ele>145.0</ele><time>2026-03-30T09:14:51.584Z</time></trkpt><trkpt lat="45.533705" lon="10.2173683"><ele>145.4</ele><time>2026-03-30T09:14:52.585Z</time></trkpt><trkpt lat="45.5336783" lon="10.2175083"><ele>145.8</ele><time>2026-03-30T09:14:54.585Z</time></trkpt><trkpt lat="45.533655" lon="10.2176417"><ele>146.2</ele><time>2026-03-30T09:15:44.585Z</time></trkpt><trkpt lat="45.5335983" lon="10.2177967"><ele>146.6</ele><time>2026-03-30T09:15:46.585Z</time></trkpt><trkpt lat="45.5335717" lon="10.2178967"><ele>147.0</ele><time>2026-03-30T09:15:47.585Z</time></trkpt><trkpt lat="45.53355" lon="10.2180117"><ele>147.0</ele><time>2026-03-30T09:15:48.585Z</time></trkpt><trkpt lat="45.5335333" lon="10.218135"><ele>147.0</ele><time>2026-03-30T09:15:49.585Z</time></trkpt><trkpt lat="45.5335133" lon="10.218275"><ele>147.0</ele><time>2026-03-30T09:15:50.585Z</time></trkpt><trkpt lat="45.5334833" lon="10.2184067"><ele>147.0</ele><time>2026-03-30T09:15:51.585Z</time></trkpt><trkpt lat="45.53346" lon="10.218525"><ele>147.0</ele><time>2026-03-30T09:15:52.584Z</time></trkpt><trkpt lat="45.5334267" lon="10.2186733"><ele>146.79999999999998</ele><time>2026-03-30T09:15:53.585Z</time></trkpt><trkpt lat="45.533395" lon="10.218825"><ele>146.6</ele><time>2026-03-30T09:15:54.584Z</time></trkpt><trkpt lat="45.5333717" lon="10.2189633"><ele>146.39999999999998</ele><time>2026-03-30T09:15:55.585Z</time></trkpt><trkpt lat="45.5333567" lon="10.2191"><ele>146.2</ele><time>2026-03-30T09:15:56.585Z</time></trkpt><trkpt lat="45.5333317" lon="10.2192417"><ele>146.0</ele><time>2026-03-30T09:15:57.584Z</time></trkpt><trkpt lat="45.5333067" lon="10.2193917"><ele>146.0</ele><time>2026-03-30T09:15:58.585Z</time></trkpt><trkpt lat="45.5332783" lon="10.219535"><ele>146.0</ele><time>2026-03-30T09:15:59.584Z</time></trkpt><trkpt lat="45.5332533" lon="10.21969"><ele>146.0</ele><time>2026-03-30T09:16:00.584Z</time></trkpt><trkpt lat="45.533235" lon="10.219835"><ele>146.0</ele><time>2026-03-30T09:16:01.585Z</time></trkpt><trkpt lat="45.5332067" lon="10.2199817"><ele>146.0</ele><time>2026-03-30T09:16:02.584Z</time></trkpt><trkpt lat="45.5331817" lon="10.2201217"><ele>145.8</ele><time>2026-03-30T09:16:03.585Z</time></trkpt><trkpt lat="45.53315" lon="10.2202517"><ele>145.6</ele><time>2026-03-30T09:16:04.585Z</time></trkpt><trkpt lat="45.5331167" lon="10.22038"><ele>145.4</ele><time>2026-03-30T09:16:05.585Z</time></trkpt><trkpt lat="45.53309" lon="10.2205233"><ele>145.2</ele><time>2026-03-30T09:16:06.585Z</time></trkpt><trkpt lat="45.5330617" lon="10.2206917"><ele>145.0</ele><time>2026-03-30T09:16:07.585Z</time></trkpt><trkpt lat="45.5330183" lon="10.2208567"><ele>144.5</ele><time>2026-03-30T09:16:08.585Z</time></trkpt><trkpt lat="45.5329817" lon="10.2210367"><ele>144.0</ele><time>2026-03-30T09:16:09.585Z</time></trkpt><trkpt lat="45.5329433" lon="10.2212167"><ele>143.5</ele><time>2026-03-30T09:16:10.585Z</time></trkpt><trkpt lat="45.5329083" lon="10.221395"><ele>143.0</ele><time>2026-03-30T09:16:11.585Z</time></trkpt><trkpt lat="45.532885" lon="10.2215867"><ele>142.75</ele><time>2026-03-30T09:16:12.585Z</time></trkpt><trkpt lat="45.53283" lon="10.2217833"><ele>142.5</ele><time>2026-03-30T09:16:13.584Z</time></trkpt><trkpt lat="45.5327917" lon="10.2219733"><ele>142.25</ele><time>2026-03-30T09:16:14.585Z</time></trkpt><trkpt lat="45.532755" lon="10.22218"><ele>142.0</ele><time>2026-03-30T09:16:15.585Z</time></trkpt><trkpt lat="45.53273" lon="10.222385"><ele>142.0</ele><time>2026-03-30T09:16:16.584Z</time></trkpt><trkpt lat="45.5326833" lon="10.22258"><ele>142.0</ele><time>2026-03-30T09:16:17.585Z</time></trkpt><trkpt lat="45.532645" lon="10.2227783"><ele>142.0</ele><time>2026-03-30T09:16:18.585Z</time></trkpt><trkpt lat="45.5326067" lon="10.2229617"><ele>142.0</ele><time>2026-03-30T09:16:19.585Z</time></trkpt><trkpt lat="45.532575" lon="10.2231517"><ele>142.25</ele><time>2026-03-30T09:16:20.585Z</time></trkpt><trkpt lat="45.532545" lon="10.223335"><ele>142.5</ele><time>2026-03-30T09:16:21.585Z</time></trkpt><trkpt lat="45.53252" lon="10.2235067"><ele>142.75</ele><time>2026-03-30T09:16:22.585Z</time></trkpt><trkpt lat="45.53249" lon="10.2236783"><ele>143.0</ele><time>2026-03-30T09:16:23.585Z</time></trkpt><trkpt lat="45.5324633" lon="10.2238367"><ele>142.8</ele><time>2026-03-30T09:16:24.585Z</time></trkpt><trkpt lat="45.5324383" lon="10.2239883"><ele>142.60000000000002</ele><time>2026-03-30T09:16:25.585Z</time></trkpt><trkpt lat="45.5324117" lon="10.2241367"><ele>142.39999999999998</ele><time>2026-03-30T09:16:26.585Z</time></trkpt><trkpt lat="45.532385" lon="10.2242633"><ele>142.2</ele><time>2026-03-30T09:16:27.584Z</time></trkpt><trkpt lat="45.5323533" lon="10.2243933"><ele>142.0</ele><time>2026-03-30T09:16:28.585Z</time></trkpt><trkpt lat="45.5323567" lon="10.2245233"><ele>142.0</ele><time>2026-03-30T09:16:29.585Z</time></trkpt><trkpt lat="45.5323483" lon="10.2246467"><ele>142.0</ele><time>2026-03-30T09:16:30.584Z</time></trkpt><trkpt lat="45.53233" lon="10.224765"><ele>142.0</ele><time>2026-03-30T09:16:31.585Z</time></trkpt><trkpt lat="45.532315" lon="10.224885"><ele>142.0</ele><time>2026-03-30T09:16:32.585Z</time></trkpt><trkpt lat="45.532305" lon="10.225015"><ele>142.0</ele><time>2026-03-30T09:16:33.585Z</time></trkpt><trkpt lat="45.5322883" lon="10.2251667"><ele>141.5</ele><time>2026-03-30T09:16:34.585Z</time></trkpt><trkpt lat="45.532275" lon="10.22533"><ele>141.0</ele><time>2026-03-30T09:16:35.585Z</time></trkpt><trkpt lat="45.5322417" lon="10.2254933"><ele>140.5</ele><time>2026-03-30T09:16:36.585Z</time></trkpt><trkpt lat="45.5322167" lon="10.2256583"><ele>140.0</ele><time>2026-03-30T09:16:37.585Z</time></trkpt><trkpt lat="45.5321883" lon="10.22582"><ele>140.0</ele><time>2026-03-30T09:16:38.585Z</time></trkpt><trkpt lat="45.5321633" lon="10.225995"><ele>140.0</ele><time>2026-03-30T09:16:39.585Z</time></trkpt><trkpt lat="45.5321267" lon="10.2261633"><ele>140.0</ele><time>2026-03-30T09:16:40.585Z</time></trkpt><trkpt lat="45.5321017" lon="10.2263283"><ele>140.0</ele><time>2026-03-30T09:16:41.585Z</time></trkpt><trkpt lat="45.5320683" lon="10.2264933"><ele>139.75</ele><time>2026-03-30T09:16:42.585Z</time></trkpt><trkpt lat="45.53203" lon="10.22665"><ele>139.5</ele><time>2026-03-30T09:16:43.585Z</time></trkpt><trkpt lat="45.5319883" lon="10.22681"><ele>139.25</ele><time>2026-03-30T09:16:44.584Z</time></trkpt><trkpt lat="45.5319317" lon="10.2269683"><ele>139.0</ele><time>2026-03-30T09:16:45.585Z</time></trkpt><trkpt lat="45.53189" lon="10.2271483"><ele>139.0</ele><time>2026-03-30T09:16:46.585Z</time></trkpt><trkpt lat="45.5318583" lon="10.227335"><ele>139.0</ele><time>2026-03-30T09:16:47.585Z</time></trkpt><trkpt lat="45.5318183" lon="10.22752"><ele>139.0</ele><time>2026-03-30T09:16:48.585Z</time></trkpt><trkpt lat="45.5317783" lon="10.227695"><ele>139.0</ele><time>2026-03-30T09:16:49.585Z</time></trkpt><trkpt lat="45.5317333" lon="10.227865"><ele>139.0</ele><time>2026-03-30T09:16:50.584Z</time></trkpt><trkpt lat="45.5316867" lon="10.22803"><ele>139.0</ele><time>2026-03-30T09:16:51.585Z</time></trkpt><trkpt lat="45.5316383" lon="10.2281817"><ele>139.0</ele><time>2026-03-30T09:16:52.585Z</time></trkpt><trkpt lat="45.531605" lon="10.228315"><ele>139.0</ele><time>2026-03-30T09:16:53.585Z</time></trkpt><trkpt lat="45.5315617" lon="10.2284483"><ele>139.0</ele><time>2026-03-30T09:16:54.584Z</time></trkpt><trkpt lat="45.5315217" lon="10.2285933"><ele>138.8</ele><time>2026-03-30T09:16:55.585Z</time></trkpt><trkpt lat="45.5314817" lon="10.22874"><ele>138.60000000000002</ele><time>2026-03-30T09:16:56.585Z</time></trkpt><trkpt lat="45.53144" lon="10.2288767"><ele>138.4</ele><time>2026-03-30T09:16:57.585Z</time></trkpt><trkpt lat="45.5314033" lon="10.229005"><ele>138.20000000000002</ele><time>2026-03-30T09:16:58.585Z</time></trkpt><trkpt lat="45.5313633" lon="10.229115"><ele>138.0</ele><time>2026-03-30T09:16:59.585Z</time></trkpt><trkpt lat="45.53133" lon="10.2292283"><ele>138.33333333333334</ele><time>2026-03-30T09:17:00.585Z</time></trkpt><trkpt lat="45.5313" lon="10.22934"><ele>138.66666666666666</ele><time>2026-03-30T09:17:01.585Z</time></trkpt><trkpt lat="45.5312717" lon="10.2294533"><ele>139.0</ele><time>2026-03-30T09:17:02.584Z</time></trkpt><trkpt lat="45.5312483" lon="10.2295483"><ele>139.33333333333331</ele><time>2026-03-30T09:17:03.585Z</time></trkpt><trkpt lat="45.5312267" lon="10.2296333"><ele>139.66666666666666</ele><time>2026-03-30T09:17:04.584Z</time></trkpt><trkpt lat="45.53116" lon="10.229765"><ele>140.0</ele><time>2026-03-30T09:17:06.584Z</time></trkpt><trkpt lat="45.5311383" lon="10.2298933"><ele>140.2</ele><time>2026-03-30T09:17:08.585Z</time></trkpt><trkpt lat="45.5310917" lon="10.2300083"><ele>140.4</ele><time>2026-03-30T09:17:27.585Z</time></trkpt><trkpt lat="45.53103" lon="10.2301717"><ele>140.6</ele><time>2026-03-30T09:17:29.585Z</time></trkpt><trkpt lat="45.530975" lon="10.23031"><ele>140.8</ele><time>2026-03-30T09:17:31.585Z</time></trkpt><trkpt lat="45.530975" lon="10.230435"><ele>141.0</ele><time>2026-03-30T09:17:32.585Z</time></trkpt><trkpt lat="45.5309067" lon="10.2305717"><ele>140.5</ele><time>2026-03-30T09:17:34.585Z</time></trkpt><trkpt lat="45.5308583" lon="10.2306617"><ele>140.0</ele><time>2026-03-30T09:17:35.585Z</time></trkpt><trkpt lat="45.5308217" lon="10.23075"><ele>139.5</ele><time>2026-03-30T09:17:36.585Z</time></trkpt><trkpt lat="45.5307933" lon="10.2308433"><ele>139.0</ele><time>2026-03-30T09:17:37.585Z</time></trkpt><trkpt lat="45.5307767" lon="10.23093"><ele>138.5</ele><time>2026-03-30T09:17:38.584Z</time></trkpt><trkpt lat="45.5307783" lon="10.2310867"><ele>138.0</ele><time>2026-03-30T09:17:40.585Z</time></trkpt><trkpt lat="45.5307917" lon="10.231185"><ele>138.0</ele><time>2026-03-30T09:17:41.585Z</time></trkpt><trkpt lat="45.530795" lon="10.2313"><ele>138.0</ele><time>2026-03-30T09:17:42.585Z</time></trkpt><trkpt lat="45.5308083" lon="10.2314267"><ele>138.0</ele><time>2026-03-30T09:17:43.585Z</time></trkpt><trkpt lat="45.5308" lon="10.2315583"><ele>138.0</ele><time>2026-03-30T09:17:44.584Z</time></trkpt><trkpt lat="45.5308067" lon="10.2316733"><ele>138.0</ele><time>2026-03-30T09:17:45.585Z</time></trkpt><trkpt lat="45.53081" lon="10.231785"><ele>138.0</ele><time>2026-03-30T09:17:46.585Z</time></trkpt><trkpt lat="45.530815" lon="10.2318817"><ele>137.4</ele><time>2026-03-30T09:17:47.585Z</time></trkpt><trkpt lat="45.5308317" lon="10.2320383"><ele>136.8</ele><time>2026-03-30T09:17:49.585Z</time></trkpt><trkpt lat="45.53084" lon="10.2321883"><ele>136.2</ele><time>2026-03-30T09:17:51.585Z</time></trkpt><trkpt lat="45.5308483" lon="10.2323283"><ele>135.6</ele><time>2026-03-30T09:17:53.584Z</time></trkpt><trkpt lat="45.5308583" lon="10.2324767"><ele>135.0</ele><time>2026-03-30T09:17:55.584Z</time></trkpt><trkpt lat="45.5308667" lon="10.2326033"><ele>135.0</ele><time>2026-03-30T09:17:57.585Z</time></trkpt><trkpt lat="45.5308617" lon="10.23273"><ele>135.0</ele><time>2026-03-30T09:18:03.584Z</time></trkpt><trkpt lat="45.5308567" lon="10.2329"><ele>135.0</ele><time>2026-03-30T09:18:06.585Z</time></trkpt><trkpt lat="45.5308683" lon="10.2329933"><ele>135.0</ele><time>2026-03-30T09:18:07.585Z</time></trkpt><trkpt lat="45.5308767" lon="10.2330983"><ele>135.0</ele><time>2026-03-30T09:18:08.585Z</time></trkpt><trkpt lat="45.530885" lon="10.2332"><ele>135.0</ele><time>2026-03-30T09:18:09.584Z</time></trkpt><trkpt lat="45.53089" lon="10.233305"><ele>135.0</ele><time>2026-03-30T09:18:10.585Z</time></trkpt><trkpt lat="45.530895" lon="10.2334017"><ele>135.0</ele><time>2026-03-30T09:18:11.585Z</time></trkpt><trkpt lat="45.5309033" lon="10.2335767"><ele>135.0</ele><time>2026-03-30T09:18:13.584Z</time></trkpt><trkpt lat="45.530905" lon="10.2336733"><ele>135.0</ele><time>2026-03-30T09:18:14.585Z</time></trkpt><trkpt lat="45.5309083" lon="10.23378"><ele>135.0</ele><time>2026-03-30T09:18:15.584Z</time></trkpt><trkpt lat="45.53091" lon="10.233885"><ele>135.0</ele><time>2026-03-30T09:18:16.584Z</time></trkpt><trkpt lat="45.5309133" lon="10.2339833"><ele>134.8</ele><time>2026-03-30T09:18:17.584Z</time></trkpt><trkpt lat="45.530925" lon="10.2341317"><ele>134.6</ele><time>2026-03-30T09:18:19.584Z</time></trkpt><trkpt lat="45.5309383" lon="10.234255"><ele>134.4</ele><time>2026-03-30T09:18:21.585Z</time></trkpt><trkpt lat="45.5309567" lon="10.234385"><ele>134.2</ele><time>2026-03-30T09:18:23.585Z</time></trkpt><trkpt lat="45.530965" lon="10.2345267"><ele>134.0</ele><time>2026-03-30T09:18:25.585Z</time></trkpt><trkpt lat="45.5309633" lon="10.2346467"><ele>134.0</ele><time>2026-03-30T09:18:27.585Z</time></trkpt><trkpt lat="45.5309683" lon="10.23479"><ele>134.0</ele><time>2026-03-30T09:18:29.585Z</time></trkpt><trkpt lat="45.530975" lon="10.23489"><ele>134.0</ele><time>2026-03-30T09:18:30.585Z</time></trkpt><trkpt lat="45.5309767" lon="10.2349983"><ele>134.0</ele><time>2026-03-30T09:18:31.585Z</time></trkpt><trkpt lat="45.5309867" lon="10.23512"><ele>134.0</ele><time>2026-03-30T09:18:32.585Z</time></trkpt><trkpt lat="45.53099" lon="10.2352383"><ele>134.0</ele><time>2026-03-30T09:18:33.584Z</time></trkpt><trkpt lat="45.530995" lon="10.23535"><ele>133.6</ele><time>2026-03-30T09:18:34.585Z</time></trkpt><trkpt lat="45.531" lon="10.23545"><ele>133.2</ele><time>2026-03-30T09:18:35.585Z</time></trkpt><trkpt lat="45.5310067" lon="10.23562"><ele>132.79999999999998</ele><time>2026-03-30T09:18:37.585Z</time></trkpt><trkpt lat="45.5310067" lon="10.2358067"><ele>132.4</ele><time>2026-03-30T09:18:39.585Z</time></trkpt><trkpt lat="45.5310117" lon="10.2359033"><ele>132.0</ele><time>2026-03-30T09:18:40.585Z</time></trkpt><trkpt lat="45.5310117" lon="10.2360067"><ele>131.85714285714286</ele><time>2026-03-30T09:18:41.585Z</time></trkpt><trkpt lat="45.5310133" lon="10.2361183"><ele>131.71428571428572</ele><time>2026-03-30T09:18:42.584Z</time></trkpt><trkpt lat="45.5310067" lon="10.2362317"><ele>131.57142857142858</ele><time>2026-03-30T09:18:43.585Z</time></trkpt><trkpt lat="45.5310017" lon="10.2363417"><ele>131.42857142857144</ele><time>2026-03-30T09:18:44.585Z</time></trkpt><trkpt lat="45.5310067" lon="10.2364517"><ele>131.2857142857143</ele><time>2026-03-30T09:18:45.585Z</time></trkpt><trkpt lat="45.5310117" lon="10.236545"><ele>131.14285714285714</ele><time>2026-03-30T09:18:46.585Z</time></trkpt><trkpt lat="45.5310133" lon="10.2366467"><ele>131.0</ele><time>2026-03-30T09:18:47.585Z</time></trkpt><trkpt lat="45.5310083" lon="10.2367483"><ele>131.0</ele><time>2026-03-30T09:18:48.585Z</time></trkpt><trkpt lat="45.530985" lon="10.2368417"><ele>131.0</ele><time>2026-03-30T09:18:49.584Z</time></trkpt><trkpt lat="45.5309517" lon="10.236925"><ele>131.0</ele><time>2026-03-30T09:18:50.584Z</time></trkpt><trkpt lat="45.5308967" lon="10.237075"><ele>131.0</ele><time>2026-03-30T09:18:52.585Z</time></trkpt><trkpt lat="45.530915" lon="10.2372317"><ele>131.0</ele><time>2026-03-30T09:18:54.585Z</time></trkpt><trkpt lat="45.531" lon="10.237275"><ele>131.0</ele><time>2026-03-30T09:18:56.585Z</time></trkpt><trkpt lat="45.53111" lon="10.237245"><ele>131.0</ele><time>2026-03-30T09:18:58.585Z</time></trkpt><trkpt lat="45.5311733" lon="10.237225"><ele>131.0</ele><time>2026-03-30T09:18:59.584Z</time></trkpt><trkpt lat="45.5312367" lon="10.2372217"><ele>131.0</ele><time>2026-03-30T09:19:00.585Z</time></trkpt><trkpt lat="45.5313117" lon="10.2372333"><ele>131.0</ele><time>2026-03-30T09:19:01.584Z</time></trkpt><trkpt lat="45.5314" lon="10.2372383"><ele>131.0</ele><time>2026-03-30T09:19:02.585Z</time></trkpt><trkpt lat="45.5314767" lon="10.2372567"><ele>131.16666666666666</ele><time>2026-03-30T09:19:03.585Z</time></trkpt><trkpt lat="45.5315683" lon="10.237285"><ele>131.33333333333331</ele><time>2026-03-30T09:19:04.585Z</time></trkpt><trkpt lat="45.5316417" lon="10.2373217"><ele>131.5</ele><time>2026-03-30T09:19:05.584Z</time></trkpt><trkpt lat="45.531715" lon="10.237355"><ele>131.66666666666666</ele><time>2026-03-30T09:19:06.585Z</time></trkpt><trkpt lat="45.5317867" lon="10.237395"><ele>131.83333333333334</ele><time>2026-03-30T09:19:07.584Z</time></trkpt><trkpt lat="45.5318567" lon="10.2374483"><ele>132.0</ele><time>2026-03-30T09:19:08.585Z</time></trkpt><trkpt lat="45.5319267" lon="10.237495"><ele>132.0</ele><time>2026-03-30T09:19:09.585Z</time></trkpt><trkpt lat="45.5319967" lon="10.2375417"><ele>132.0</ele><time>2026-03-30T09:19:10.585Z</time></trkpt><trkpt lat="45.532065" lon="10.2375817"><ele>132.0</ele><time>2026-03-30T09:19:11.585Z</time></trkpt><trkpt lat="45.53213" lon="10.23761"><ele>132.0</ele><time>2026-03-30T09:19:12.585Z</time></trkpt><trkpt lat="45.5321917" lon="10.237645"><ele>132.0</ele><time>2026-03-30T09:19:13.585Z</time></trkpt><trkpt lat="45.5322767" lon="10.237685"><ele>132.0</ele><time>2026-03-30T09:19:15.585Z</time></trkpt><trkpt lat="45.5323533" lon="10.2376983"><ele>132.2</ele><time>2026-03-30T09:19:19.585Z</time></trkpt><trkpt lat="45.532305" lon="10.23781"><ele>132.39999999999998</ele><time>2026-03-30T09:19:47.584Z</time></trkpt><trkpt lat="45.53226" lon="10.2379333"><ele>132.60000000000002</ele><time>2026-03-30T09:19:49.584Z</time></trkpt><trkpt lat="45.5322183" lon="10.2380833"><ele>132.8</ele><time>2026-03-30T09:19:51.585Z</time></trkpt><trkpt lat="45.5321883" lon="10.2382133"><ele>133.0</ele><time>2026-03-30T09:19:53.585Z</time></trkpt><trkpt lat="45.5321717" lon="10.238345"><ele>133.0</ele><time>2026-03-30T09:19:55.585Z</time></trkpt><trkpt lat="45.5321533" lon="10.238445"><ele>133.0</ele><time>2026-03-30T09:19:57.584Z</time></trkpt><trkpt lat="45.5322133" lon="10.2384983"><ele>133.0</ele><time>2026-03-30T09:20:01.585Z</time></trkpt><trkpt lat="45.532217" lon="10.2386522"><ele>133.0</ele><time>2026-03-30T09:22:03.593Z</time></trkpt><trkpt lat="45.5322789" lon="10.2386823"><ele>133.0</ele><time>2026-03-30T09:22:04.616Z</time></trkpt><trkpt lat="45.5323488" lon="10.2385815"><ele>133.0</ele><time>2026-03-30T09:22:05.639Z</time></trkpt><trkpt lat="45.5323194" lon="10.238334"><ele>133.0</ele><time>2026-03-30T09:22:06.589Z</time></trkpt><trkpt lat="45.5322717" lon="10.2381402"><ele>133.0</ele><time>2026-03-30T09:22:07.588Z</time></trkpt><trkpt lat="45.5322369" lon="10.237996"><ele>133.0</ele><time>2026-03-30T09:22:08.605Z</time></trkpt><trkpt lat="45.5322617" lon="10.238081"><ele>133.0</ele><time>2026-03-30T09:22:14.643Z</time></trkpt><trkpt lat="45.5321837" lon="10.2382218"><ele>133.0</ele><time>2026-03-30T09:22:15.666Z</time></trkpt><trkpt lat="45.5321161" lon="10.2384754"><ele>133.0</ele><time>2026-03-30T09:22:16.589Z</time></trkpt><trkpt lat="45.532169" lon="10.2383335"><ele>133.0</ele><time>2026-03-30T09:22:35.588Z</time></trkpt><trkpt lat="45.5322111" lon="10.2382422"><ele>133.0</ele><time>2026-03-30T09:22:37.589Z</time></trkpt><trkpt lat="45.5322244" lon="10.2381493"><ele>133.0</ele><time>2026-03-30T09:22:39.589Z</time></trkpt><trkpt lat="45.5322625" lon="10.2380313"><ele>133.0</ele><time>2026-03-30T09:22:42.589Z</time></trkpt><trkpt lat="45.5322663" lon="10.2379259"><ele>133.0</ele><time>2026-03-30T09:22:45.588Z</time></trkpt><trkpt lat="45.5323015" lon="10.2378146"><ele>133.0</ele><time>2026-03-30T09:22:48.589Z</time></trkpt><trkpt lat="45.532345" lon="10.237731"><ele>133.0</ele><time>2026-03-30T09:22:51.589Z</time></trkpt><trkpt lat="45.5323936" lon="10.2376651"><ele>133.0</ele><time>2026-03-30T09:22:53.589Z</time></trkpt><trkpt lat="45.5324465" lon="10.2375793"><ele>133.0</ele><time>2026-03-30T09:22:55.589Z</time></trkpt><trkpt lat="45.532483" lon="10.2374908"><ele>133.0</ele><time>2026-03-30T09:22:57.589Z</time></trkpt><trkpt lat="45.532557" lon="10.2374256"><ele>133.0</ele><time>2026-03-30T09:23:01.589Z</time></trkpt><trkpt lat="45.5325298" lon="10.2375093"><ele>133.0</ele><time>2026-03-30T09:23:03.589Z</time></trkpt><trkpt lat="45.5324204" lon="10.2377565"><ele>133.0</ele><time>2026-03-30T09:23:07.589Z</time></trkpt><trkpt lat="45.5323175" lon="10.2380356"><ele>133.0</ele><time>2026-03-30T09:23:08.589Z</time></trkpt><trkpt lat="45.5322525" lon="10.2381578"><ele>133.0</ele><time>2026-03-30T09:23:09.588Z</time></trkpt><trkpt lat="45.5322142" lon="10.2383064"><ele>133.0</ele><time>2026-03-30T09:23:13.589Z</time></trkpt><trkpt lat="45.5323123" lon="10.2384515"><ele>133.0</ele><time>2026-03-30T09:23:20.589Z</time></trkpt><trkpt lat="45.5323552" lon="10.2385516"><ele>133.0</ele><time>2026-03-30T09:23:22.588Z</time></trkpt><trkpt lat="45.5324686" lon="10.2385565"><ele>133.0</ele><time>2026-03-30T09:23:44.589Z</time></trkpt><trkpt lat="45.5325673" lon="10.2383836"><ele>133.0</ele><time>2026-03-30T09:23:58.589Z</time></trkpt><trkpt lat="45.5322631" lon="10.2385954"><ele>133.0</ele><time>2026-03-30T09:24:13.279Z</time></trkpt></trkseg></trk></gpx>